sensor_id;sensor_type;location;lat;lon;timestamp;pressure;altitude;pressure_sealevel;temperature;humidity
74936;BME280;63501;55.570;37.488;2024-02-23T00:00:31;99096.97;;;23.83;17.32
74936;BME280;63501;55.570;37.488;2024-02-23T00:03:06;99090.53;;;23.83;16.81
74936;BME280;63501;55.570;37.488;2024-02-23T00:05:41;99090.53;;;23.83;17.54
74936;BME280;63501;55.570;37.488;2024-02-23T00:08:17;99095.41;;;23.82;17.57
74936;BME280;63501;55.570;37.488;2024-02-23T00:11:05;99101.06;;;23.82;16.93
74936;BME280;63501;55.570;37.488;2024-02-23T00:13:32;99084.13;;;23.82;17.32
74936;BME280;63501;55.570;37.488;2024-02-23T00:15:59;99095.41;;;23.82;17.18
74936;BME280;63501;55.570;37.488;2024-02-23T00:18:28;99092.59;;;23.82;16.93
74936;BME280;63501;55.570;37.488;2024-02-23T00:20:57;99096.19;;;23.83;17.40
74936;BME280;63501;55.570;37.488;2024-02-23T00:23:25;99092.59;;;23.82;16.72
74936;BME280;63501;55.570;37.488;2024-02-23T00:25:52;99087.72;;;23.83;17.58
74936;BME280;63501;55.570;37.488;2024-02-23T00:28:21;99088.50;;;23.83;17.08
74936;BME280;63501;55.570;37.488;2024-02-23T00:30:48;99095.41;;;23.82;17.45
74936;BME280;63501;55.570;37.488;2024-02-23T00:33:16;99092.59;;;23.82;16.80
74936;BME280;63501;55.570;37.488;2024-02-23T00:35:44;99093.38;;;23.83;17.40
74936;BME280;63501;55.570;37.488;2024-02-23T00:38:11;99086.94;;;23.82;17.75
74936;BME280;63501;55.570;37.488;2024-02-23T00:40:44;99089.75;;;23.82;16.95
74936;BME280;63501;55.570;37.488;2024-02-23T00:43:11;99101.06;;;23.82;16.75
74936;BME280;63501;55.570;37.488;2024-02-23T00:45:38;99095.41;;;23.82;16.74
74936;BME280;63501;55.570;37.488;2024-02-23T00:48:05;99099.78;;;23.83;17.49
74936;BME280;63501;55.570;37.488;2024-02-23T00:50:34;99100.56;;;23.84;17.03
74936;BME280;63501;55.570;37.488;2024-02-23T00:53:02;99101.84;;;23.83;17.50
74936;BME280;63501;55.570;37.488;2024-02-23T00:55:31;99104.16;;;23.84;17.49
74936;BME280;63501;55.570;37.488;2024-02-23T00:57:59;99110.31;;;23.83;17.10
74936;BME280;63501;55.570;37.488;2024-02-23T01:00:26;99110.31;;;23.83;17.06
74936;BME280;63501;55.570;37.488;2024-02-23T01:02:55;99118.78;;;23.83;16.92
74936;BME280;63501;55.570;37.488;2024-02-23T01:05:25;99112.34;;;23.82;17.00
74936;BME280;63501;55.570;37.488;2024-02-23T01:07:58;99121.59;;;23.83;17.63
74936;BME280;63501;55.570;37.488;2024-02-23T01:10:27;99117.22;;;23.82;17.16
74936;BME280;63501;55.570;37.488;2024-02-23T01:12:54;99118.00;;;23.82;17.17
74936;BME280;63501;55.570;37.488;2024-02-23T01:15:30;99112.84;;;23.81;16.91
74936;BME280;63501;55.570;37.488;2024-02-23T01:17:57;99129.28;;;23.82;17.65
74936;BME280;63501;55.570;37.488;2024-02-23T01:20:24;99108.25;;;23.83;16.85
74936;BME280;63501;55.570;37.488;2024-02-23T01:22:51;99112.34;;;23.82;17.13
74936;BME280;63501;55.570;37.488;2024-02-23T01:25:18;99108.75;;;23.82;17.00
74936;BME280;63501;55.570;37.488;2024-02-23T01:27:47;99110.31;;;23.83;16.74
74936;BME280;63501;55.570;37.488;2024-02-23T01:30:14;99102.59;;;23.83;16.93
74936;BME280;63501;55.570;37.488;2024-02-23T01:32:41;99108.25;;;23.83;17.30
74936;BME280;63501;55.570;37.488;2024-02-23T01:35:11;99103.88;;;23.82;17.13
74936;BME280;63501;55.570;37.488;2024-02-23T01:37:38;99101.84;;;23.83;17.90
74936;BME280;63501;55.570;37.488;2024-02-23T01:40:05;99101.84;;;23.83;16.93
74936;BME280;63501;55.570;37.488;2024-02-23T01:42:34;99097.75;;;23.84;16.96
74936;BME280;63501;55.570;37.488;2024-02-23T01:45:09;99092.88;;;23.84;17.05
74936;BME280;63501;55.570;37.488;2024-02-23T01:47:36;99095.69;;;23.84;17.36
74936;BME280;63501;55.570;37.488;2024-02-23T01:50:03;99096.97;;;23.83;16.90
74936;BME280;63501;55.570;37.488;2024-02-23T01:52:33;99103.38;;;23.84;17.08
74936;BME280;63501;55.570;37.488;2024-02-23T01:55:01;99101.06;;;23.82;17.79
74936;BME280;63501;55.570;37.488;2024-02-23T01:57:28;99094.13;;;23.83;17.88
74936;BME280;63501;55.570;37.488;2024-02-23T01:59:55;99099.78;;;23.83;17.18
74936;BME280;63501;55.570;37.488;2024-02-23T02:02:24;99099.78;;;23.83;17.75
74936;BME280;63501;55.570;37.488;2024-02-23T02:04:51;99100.56;;;23.84;17.45
74936;BME280;63501;55.570;37.488;2024-02-23T02:07:18;99103.38;;;23.84;16.89
74936;BME280;63501;55.570;37.488;2024-02-23T02:09:48;99104.16;;;23.84;17.84
74936;BME280;63501;55.570;37.488;2024-02-23T02:12:19;99096.97;;;23.83;17.49
74936;BME280;63501;55.570;37.488;2024-02-23T02:14:52;99096.97;;;23.83;17.52
74936;BME280;63501;55.570;37.488;2024-02-23T02:17:22;99105.44;;;23.83;17.94
74936;BME280;63501;55.570;37.488;2024-02-23T02:19:50;99101.84;;;23.83;17.20
74936;BME280;63501;55.570;37.488;2024-02-23T02:22:20;99110.31;;;23.83;16.89
74936;BME280;63501;55.570;37.488;2024-02-23T02:24:47;99105.44;;;23.83;17.66
74936;BME280;63501;55.570;37.488;2024-02-23T02:27:14;99106.69;;;23.82;17.09
74936;BME280;63501;55.570;37.488;2024-02-23T02:29:41;99113.13;;;23.83;16.83
74936;BME280;63501;55.570;37.488;2024-02-23T02:32:08;99108.25;;;23.83;16.85
74936;BME280;63501;55.570;37.488;2024-02-23T02:34:35;99113.13;;;23.83;17.60
74936;BME280;63501;55.570;37.488;2024-02-23T02:37:04;99104.66;;;23.83;17.76
74936;BME280;63501;55.570;37.488;2024-02-23T02:39:31;99113.13;;;23.83;17.13
74936;BME280;63501;55.570;37.488;2024-02-23T02:41:58;99108.25;;;23.83;17.17
74936;BME280;63501;55.570;37.488;2024-02-23T02:44:25;99116.72;;;23.83;16.93
74936;BME280;63501;55.570;37.488;2024-02-23T02:47:01;99106.69;;;23.82;17.26
74936;BME280;63501;55.570;37.488;2024-02-23T02:49:28;99113.91;;;23.83;17.34
74936;BME280;63501;55.570;37.488;2024-02-23T02:51:58;99115.19;;;23.82;17.93
74936;BME280;63501;55.570;37.488;2024-02-23T02:54:28;99118.78;;;23.83;17.04
74936;BME280;63501;55.570;37.488;2024-02-23T02:56:57;99118.00;;;23.82;17.16
74936;BME280;63501;55.570;37.488;2024-02-23T02:59:24;99120.81;;;23.82;16.97
74936;BME280;63501;55.570;37.488;2024-02-23T03:01:53;99117.50;;;23.84;17.16
74936;BME280;63501;55.570;37.488;2024-02-23T03:04:22;99114.69;;;23.84;17.92
74936;BME280;63501;55.570;37.488;2024-02-23T03:06:49;99121.09;;;23.84;17.44
74936;BME280;63501;55.570;37.488;2024-02-23T03:09:16;99122.38;;;23.83;17.65
74936;BME280;63501;55.570;37.488;2024-02-23T03:11:45;99121.09;;;23.84;17.14
74936;BME280;63501;55.570;37.488;2024-02-23T03:14:11;99126.75;;;23.84;17.61
74936;BME280;63501;55.570;37.488;2024-02-23T03:16:38;99120.31;;;23.84;17.11
74936;BME280;63501;55.570;37.488;2024-02-23T03:19:07;99127.53;;;23.85;17.33
74936;BME280;63501;55.570;37.488;2024-02-23T03:21:34;99132.38;;;23.84;17.45
74936;BME280;63501;55.570;37.488;2024-02-23T03:24:02;99130.84;;;23.83;17.32
74936;BME280;63501;55.570;37.488;2024-02-23T03:26:29;99130.84;;;23.83;17.28
74936;BME280;63501;55.570;37.488;2024-02-23T03:28:59;99129.56;;;23.84;17.91
74936;BME280;63501;55.570;37.488;2024-02-23T03:31:27;99130.84;;;23.83;17.24
74936;BME280;63501;55.570;37.488;2024-02-23T03:33:54;99128.00;;;23.83;17.04
74936;BME280;63501;55.570;37.488;2024-02-23T03:36:21;99132.88;;;23.83;17.21
74936;BME280;63501;55.570;37.488;2024-02-23T03:38:48;99144.19;;;23.83;17.34
74936;BME280;63501;55.570;37.488;2024-02-23T03:41:15;99142.13;;;23.83;17.89
74936;BME280;63501;55.570;37.488;2024-02-23T03:43:43;99144.97;;;23.83;17.73
74936;BME280;63501;55.570;37.488;2024-02-23T03:46:11;99147.28;;;23.85;17.29
74936;BME280;63501;55.570;37.488;2024-02-23T03:48:40;99157.81;;;23.84;17.53
74936;BME280;63501;55.570;37.488;2024-02-23T03:51:10;99149.34;;;23.84;17.93
74936;BME280;63501;55.570;37.488;2024-02-23T03:53:36;99137.25;;;23.84;16.89
74936;BME280;63501;55.570;37.488;2024-02-23T03:56:04;99140.09;;;23.84;17.53
74936;BME280;63501;55.570;37.488;2024-02-23T03:58:31;99128.00;;;23.83;17.84
74936;BME280;63501;55.570;37.488;2024-02-23T04:00:58;99142.91;;;23.84;17.66
74936;BME280;63501;55.570;37.488;2024-02-23T04:03:26;99142.13;;;23.83;17.57
74936;BME280;63501;55.570;37.488;2024-02-23T04:05:53;99139.31;;;23.83;17.32
74936;BME280;63501;55.570;37.488;2024-02-23T04:08:22;99133.66;;;23.83;17.21
74936;BME280;63501;55.570;37.488;2024-02-23T04:10:49;99140.09;;;23.84;17.08
74936;BME280;63501;55.570;37.488;2024-02-23T04:13:16;99140.84;;;23.84;17.63
74936;BME280;63501;55.570;37.488;2024-02-23T04:15:43;99138.03;;;23.84;17.11
74936;BME280;63501;55.570;37.488;2024-02-23T04:18:12;99145.72;;;23.84;17.25
74936;BME280;63501;55.570;37.488;2024-02-23T04:20:41;99133.16;;;23.85;18.08
74936;BME280;63501;55.570;37.488;2024-02-23T04:23:08;99138.03;;;23.84;18.00
74936;BME280;63501;55.570;37.488;2024-02-23T04:25:35;99140.09;;;23.84;17.30
74936;BME280;63501;55.570;37.488;2024-02-23T04:28:04;99140.84;;;23.84;17.05
74936;BME280;63501;55.570;37.488;2024-02-23T04:30:31;99143.69;;;23.84;17.38
74936;BME280;63501;55.570;37.488;2024-02-23T04:32:58;99143.69;;;23.84;17.27
74936;BME280;63501;55.570;37.488;2024-02-23T04:35:25;99140.09;;;23.84;17.96
74936;BME280;63501;55.570;37.488;2024-02-23T04:37:53;99152.16;;;23.84;17.34
74936;BME280;63501;55.570;37.488;2024-02-23T04:40:20;99146.50;;;23.84;17.13
74936;BME280;63501;55.570;37.488;2024-02-23T04:42:47;99141.63;;;23.85;17.52
74936;BME280;63501;55.570;37.488;2024-02-23T04:45:15;99146.50;;;23.84;17.12
74936;BME280;63501;55.570;37.488;2024-02-23T04:47:43;99145.25;;;23.85;17.79
74936;BME280;63501;55.570;37.488;2024-02-23T04:50:12;99150.91;;;23.85;17.41
74936;BME280;63501;55.570;37.488;2024-02-23T04:52:39;99156.56;;;23.85;17.42
74936;BME280;63501;55.570;37.488;2024-02-23T04:55:08;99162.97;;;23.86;17.77
74936;BME280;63501;55.570;37.488;2024-02-23T04:57:36;99162.19;;;23.85;17.96
74936;BME280;63501;55.570;37.488;2024-02-23T05:00:03;99161.41;;;23.85;17.26
74936;BME280;63501;55.570;37.488;2024-02-23T05:02:36;99156.16;;;23.78;17.74
74936;BME280;63501;55.570;37.488;2024-02-23T05:05:12;99170.69;;;23.85;18.05
74936;BME280;63501;55.570;37.488;2024-02-23T05:07:47;99173.50;;;23.85;17.46
74936;BME280;63501;55.570;37.488;2024-02-23T05:10:15;99165.50;;;23.84;17.91
74936;BME280;63501;55.570;37.488;2024-02-23T05:12:43;99169.88;;;23.85;17.49
74936;BME280;63501;55.570;37.488;2024-02-23T05:15:10;99164.72;;;23.83;17.78
74936;BME280;63501;55.570;37.488;2024-02-23T05:17:37;99174.75;;;23.84;17.48
74936;BME280;63501;55.570;37.488;2024-02-23T05:20:06;99183.22;;;23.84;17.76
74936;BME280;63501;55.570;37.488;2024-02-23T05:22:35;99170.69;;;23.85;17.76
74936;BME280;63501;55.570;37.488;2024-02-23T05:25:02;99176.31;;;23.85;17.37
74936;BME280;63501;55.570;37.488;2024-02-23T05:27:31;99179.91;;;23.86;17.81
74936;BME280;63501;55.570;37.488;2024-02-23T05:29:58;99170.69;;;23.85;17.49
74936;BME280;63501;55.570;37.488;2024-02-23T05:32:25;99189.63;;;23.85;17.76
74936;BME280;63501;55.570;37.488;2024-02-23T05:34:52;99187.63;;;23.85;17.64
74936;BME280;63501;55.570;37.488;2024-02-23T05:37:22;99189.63;;;23.85;17.29
74936;BME280;63501;55.570;37.488;2024-02-23T05:39:49;99190.44;;;23.85;17.30
74936;BME280;63501;55.570;37.488;2024-02-23T05:42:19;99189.63;;;23.85;17.46
74936;BME280;63501;55.570;37.488;2024-02-23T05:44:47;99194.50;;;23.84;17.35
74936;BME280;63501;55.570;37.488;2024-02-23T05:47:17;99197.31;;;23.84;17.42
74936;BME280;63501;55.570;37.488;2024-02-23T05:49:46;99198.09;;;23.85;17.32
74936;BME280;63501;55.570;37.488;2024-02-23T05:52:13;99195.78;;;23.83;17.34
74936;BME280;63501;55.570;37.488;2024-02-23T05:54:41;99192.44;;;23.85;17.32
74936;BME280;63501;55.570;37.488;2024-02-23T05:57:08;99188.06;;;23.84;17.90
74936;BME280;63501;55.570;37.488;2024-02-23T05:59:38;99194.50;;;23.84;17.42
74936;BME280;63501;55.570;37.488;2024-02-23T06:02:10;99184.78;;;23.85;17.83
74936;BME280;63501;55.570;37.488;2024-02-23T06:04:39;99192.00;;;23.86;17.39
74936;BME280;63501;55.570;37.488;2024-02-23T06:07:11;99196.09;;;23.85;17.32
74936;BME280;63501;55.570;37.488;2024-02-23T06:09:38;99191.22;;;23.86;17.92
74936;BME280;63501;55.570;37.488;2024-02-23T06:12:07;99206.09;;;23.86;17.83
74936;BME280;63501;55.570;37.488;2024-02-23T06:14:36;99200.47;;;23.86;17.48
74936;BME280;63501;55.570;37.488;2024-02-23T06:17:23;99194.81;;;23.86;17.60
74936;BME280;63501;55.570;37.488;2024-02-23T06:19:52;99201.22;;;23.87;17.63
74936;BME280;63501;55.570;37.488;2024-02-23T06:22:25;99202.00;;;23.87;17.49
74936;BME280;63501;55.570;37.488;2024-02-23T06:24:52;99204.84;;;23.87;17.48
74936;BME280;63501;55.570;37.488;2024-02-23T06:27:19;99210.47;;;23.87;17.67
74936;BME280;63501;55.570;37.488;2024-02-23T06:29:47;99212.53;;;23.87;17.53
74936;BME280;63501;55.570;37.488;2024-02-23T06:32:20;99221.78;;;23.87;17.44
74936;BME280;63501;55.570;37.488;2024-02-23T06:34:49;99215.34;;;23.87;17.48
74936;BME280;63501;55.570;37.488;2024-02-23T06:37:20;99206.09;;;23.86;17.37
74936;BME280;63501;55.570;37.488;2024-02-23T06:39:48;99215.34;;;23.87;18.24
74936;BME280;63501;55.570;37.488;2024-02-23T06:42:22;99218.94;;;23.87;18.27
74936;BME280;63501;55.570;37.488;2024-02-23T06:44:56;99210.47;;;23.87;17.61
74936;BME280;63501;55.570;37.488;2024-02-23T06:47:40;99223.81;;;23.87;17.56
74936;BME280;63501;55.570;37.488;2024-02-23T06:50:15;99231.03;;;23.88;17.64
74936;BME280;63501;55.570;37.488;2024-02-23T06:52:42;99221.78;;;23.87;17.58
74936;BME280;63501;55.570;37.488;2024-02-23T06:55:10;99227.41;;;23.87;17.34
74936;BME280;63501;55.570;37.488;2024-02-23T06:57:45;99232.28;;;23.87;17.27
74936;BME280;63501;55.570;37.488;2024-02-23T07:00:15;99232.28;;;23.87;17.61
74936;BME280;63501;55.570;37.488;2024-02-23T07:03:04;99229.47;;;23.87;17.82
74936;BME280;63501;55.570;37.488;2024-02-23T07:05:36;99237.44;;;23.88;17.63
74936;BME280;63501;55.570;37.488;2024-02-23T07:08:32;99239.97;;;23.86;17.85
74936;BME280;63501;55.570;37.488;2024-02-23T07:11:04;99252.06;;;23.87;18.11
74936;BME280;63501;55.570;37.488;2024-02-23T07:13:34;99250.00;;;23.87;17.89
74936;BME280;63501;55.570;37.488;2024-02-23T07:16:09;99250.00;;;23.87;17.60
74936;BME280;63501;55.570;37.488;2024-02-23T07:19:13;99247.19;;;23.87;17.69
74936;BME280;63501;55.570;37.488;2024-02-23T07:21:48;99237.94;;;23.87;17.53
74936;BME280;63501;55.570;37.488;2024-02-23T07:25:31;99243.09;;;23.88;17.55
74936;BME280;63501;55.570;37.488;2024-02-23T07:28:02;99238.72;;;23.87;17.53
74936;BME280;63501;55.570;37.488;2024-02-23T07:31:01;99231.03;;;23.88;17.48
74936;BME280;63501;55.570;37.488;2024-02-23T07:34:02;99240.25;;;23.88;17.51
74936;BME280;63501;55.570;37.488;2024-02-23T07:40:14;99241.03;;;23.89;17.36
74936;BME280;63501;55.570;37.488;2024-02-23T07:42:59;99241.03;;;23.89;17.72
74936;BME280;63501;55.570;37.488;2024-02-23T07:45:51;99247.47;;;23.89;17.87
74936;BME280;63501;55.570;37.488;2024-02-23T07:48:45;99250.28;;;23.89;17.48
74936;BME280;63501;55.570;37.488;2024-02-23T07:51:16;99249.00;;;23.90;18.31
74936;BME280;63501;55.570;37.488;2024-02-23T07:53:44;99239.00;;;23.89;18.10
74936;BME280;63501;55.570;37.488;2024-02-23T07:56:17;99243.38;;;23.90;17.66
74936;BME280;63501;55.570;37.488;2024-02-23T07:58:55;99241.81;;;23.89;17.64
74936;BME280;63501;55.570;37.488;2024-02-23T08:01:29;99238.22;;;23.89;17.59
74936;BME280;63501;55.570;37.488;2024-02-23T08:04:04;99242.59;;;23.90;17.95
74936;BME280;63501;55.570;37.488;2024-02-23T08:06:32;99249.81;;;23.91;18.03
74936;BME280;63501;55.570;37.488;2024-02-23T08:09:07;99249.81;;;23.91;17.72
74936;BME280;63501;55.570;37.488;2024-02-23T08:11:48;99257.03;;;23.92;18.04
74936;BME280;63501;55.570;37.488;2024-02-23T08:14:33;99256.25;;;23.91;18.07
74936;BME280;63501;55.570;37.488;2024-02-23T08:17:02;99258.56;;;23.93;17.70
74936;BME280;63501;55.570;37.488;2024-02-23T08:19:32;99259.84;;;23.92;18.02
74936;BME280;63501;55.570;37.488;2024-02-23T08:22:03;99266.25;;;23.92;17.94
74936;BME280;63501;55.570;37.488;2024-02-23T08:24:35;99266.25;;;23.92;17.47
74936;BME280;63501;55.570;37.488;2024-02-23T08:27:16;99259.34;;;23.93;17.61
74936;BME280;63501;55.570;37.488;2024-02-23T08:29:51;99262.94;;;23.94;18.43
74936;BME280;63501;55.570;37.488;2024-02-23T08:32:20;99270.66;;;23.93;17.59
74936;BME280;63501;55.570;37.488;2024-02-23T08:34:52;99263.44;;;23.92;17.79
74936;BME280;63501;55.570;37.488;2024-02-23T08:37:24;99266.56;;;23.94;18.13
74936;BME280;63501;55.570;37.488;2024-02-23T08:39:54;99272.19;;;23.94;17.64
74936;BME280;63501;55.570;37.488;2024-02-23T08:42:25;99275.03;;;23.94;18.06
74936;BME280;63501;55.570;37.488;2024-02-23T08:44:55;99272.19;;;23.94;17.38
74936;BME280;63501;55.570;37.488;2024-02-23T08:47:22;99278.63;;;23.95;17.51
74936;BME280;63501;55.570;37.488;2024-02-23T08:49:58;99283.50;;;23.94;17.88
74936;BME280;63501;55.570;37.488;2024-02-23T08:52:28;99278.63;;;23.95;17.48
74936;BME280;63501;55.570;37.488;2024-02-23T08:54:58;99282.72;;;23.94;17.37
74936;BME280;63501;55.570;37.488;2024-02-23T09:00:37;99286.31;;;23.94;17.65
74936;BME280;63501;55.570;37.488;2024-02-23T09:03:13;99296.34;;;23.95;17.72
74936;BME280;63501;55.570;37.488;2024-02-23T09:05:52;99289.13;;;23.94;17.73
74936;BME280;63501;55.570;37.488;2024-02-23T09:08:22;99289.13;;;23.94;17.61
74936;BME280;63501;55.570;37.488;2024-02-23T09:10:55;99284.28;;;23.95;17.73
74936;BME280;63501;55.570;37.488;2024-02-23T09:13:26;99285.03;;;23.95;17.71
74936;BME280;63501;55.570;37.488;2024-02-23T09:16:10;99287.88;;;23.95;17.66
74936;BME280;63501;55.570;37.488;2024-02-23T09:21:47;99296.34;;;23.95;17.65
74936;BME280;63501;55.570;37.488;2024-02-23T09:24:38;99285.03;;;23.95;18.11
74936;BME280;63501;55.570;37.488;2024-02-23T09:27:15;99290.69;;;23.95;17.74
74936;BME280;63501;55.570;37.488;2024-02-23T09:29:54;99285.81;;;23.96;18.09
74936;BME280;63501;55.570;37.488;2024-02-23T09:32:29;99285.81;;;23.96;17.82
74936;BME280;63501;55.570;37.488;2024-02-23T09:35:00;99293.81;;;23.97;18.04
74936;BME280;63501;55.570;37.488;2024-02-23T09:37:35;99307.44;;;23.99;17.81
74936;BME280;63501;55.570;37.488;2024-02-23T09:40:05;99303.06;;;23.98;17.98
74936;BME280;63501;55.570;37.488;2024-02-23T09:43:00;99306.69;;;23.98;17.68
74936;BME280;63501;55.570;37.488;2024-02-23T09:45:41;99303.84;;;23.98;18.22
74936;BME280;63501;55.570;37.488;2024-02-23T09:48:17;99295.38;;;23.98;18.20
74936;BME280;63501;55.570;37.488;2024-02-23T09:50:45;99296.66;;;23.97;18.17
74936;BME280;63501;55.570;37.488;2024-02-23T09:53:15;99295.38;;;23.98;18.09
74936;BME280;63501;55.570;37.488;2024-02-23T09:55:44;99292.56;;;23.98;17.92
74936;BME280;63501;55.570;37.488;2024-02-23T09:58:17;99303.84;;;23.98;17.69
74936;BME280;63501;55.570;37.488;2024-02-23T10:00:44;99297.44;;;23.98;17.80
74936;BME280;63501;55.570;37.488;2024-02-23T10:03:14;99303.84;;;23.98;17.71
74936;BME280;63501;55.570;37.488;2024-02-23T10:05:49;99289.72;;;23.98;18.14
74936;BME280;63501;55.570;37.488;2024-02-23T10:08:18;99296.94;;;23.99;18.09
74936;BME280;63501;55.570;37.488;2024-02-23T10:10:45;99295.38;;;23.98;17.96
74936;BME280;63501;55.570;37.488;2024-02-23T10:13:12;99289.72;;;23.98;17.72
74936;BME280;63501;55.570;37.488;2024-02-23T10:16:00;99291.28;;;23.99;18.35
74936;BME280;63501;55.570;37.488;2024-02-23T10:18:27;99298.19;;;23.98;17.79
74936;BME280;63501;55.570;37.488;2024-02-23T10:21:03;99287.69;;;23.99;17.89
74936;BME280;63501;55.570;37.488;2024-02-23T10:23:45;99298.97;;;23.99;17.73
74936;BME280;63501;55.570;37.488;2024-02-23T10:26:12;99294.88;;;24.00;17.89
74936;BME280;63501;55.570;37.488;2024-02-23T10:28:47;99303.34;;;24.00;18.00
74936;BME280;63501;55.570;37.488;2024-02-23T10:31:19;99302.56;;;23.99;17.84
74936;BME280;63501;55.570;37.488;2024-02-23T10:33:46;99304.63;;;23.99;18.44
74936;BME280;63501;55.570;37.488;2024-02-23T10:36:21;99313.88;;;23.99;17.99
74936;BME280;63501;55.570;37.488;2024-02-23T10:39:03;99298.97;;;23.99;17.81
74936;BME280;63501;55.570;37.488;2024-02-23T10:41:36;99311.81;;;24.00;18.31
74936;BME280;63501;55.570;37.488;2024-02-23T10:44:09;99313.88;;;23.99;18.34
74936;BME280;63501;55.570;37.488;2024-02-23T10:46:41;99312.31;;;23.98;18.44
74936;BME280;63501;55.570;37.488;2024-02-23T10:49:11;99318.75;;;23.99;18.36
74936;BME280;63501;55.570;37.488;2024-02-23T10:51:47;99321.56;;;23.99;17.73
74936;BME280;63501;55.570;37.488;2024-02-23T10:54:19;99325.16;;;23.99;18.03
74936;BME280;63501;55.570;37.488;2024-02-23T10:56:53;99319.53;;;23.99;18.04
74936;BME280;63501;55.570;37.488;2024-02-23T10:59:22;99322.34;;;23.99;18.07
74936;BME280;63501;55.570;37.488;2024-02-23T11:01:58;99321.56;;;23.99;17.88
74936;BME280;63501;55.570;37.488;2024-02-23T11:04:29;99323.13;;;24.00;18.08
74936;BME280;63501;55.570;37.488;2024-02-23T11:10:04;99337.25;;;24.00;17.83
74936;BME280;63501;55.570;37.488;2024-02-23T11:12:43;99340.84;;;24.00;18.17
74936;BME280;63501;55.570;37.488;2024-02-23T11:15:28;99335.19;;;24.00;18.00
74936;BME280;63501;55.570;37.488;2024-02-23T11:18:23;99342.41;;;24.01;17.81
74936;BME280;63501;55.570;37.488;2024-02-23T11:20:55;99340.84;;;24.00;18.44
74936;BME280;63501;55.570;37.488;2024-02-23T11:23:22;99349.31;;;24.00;18.19
74936;BME280;63501;55.570;37.488;2024-02-23T11:26:05;99344.44;;;24.01;18.43
74936;BME280;63501;55.570;37.488;2024-02-23T11:28:41;99346.50;;;24.00;18.21
74936;BME280;63501;55.570;37.488;2024-02-23T11:31:14;99348.53;;;24.00;18.17
74936;BME280;63501;55.570;37.488;2024-02-23T11:34:07;99351.38;;;24.00;18.63
74936;BME280;63501;55.570;37.488;2024-02-23T11:36:36;99349.31;;;24.00;18.60
74936;BME280;63501;55.570;37.488;2024-02-23T11:39:36;99343.66;;;24.00;18.28
74936;BME280;63501;55.570;37.488;2024-02-23T11:42:17;99335.19;;;24.00;18.32
74936;BME280;63501;55.570;37.488;2024-02-23T11:44:50;99333.63;;;23.99;18.18
74936;BME280;63501;55.570;37.488;2024-02-23T11:47:43;99342.41;;;24.01;18.21
74936;BME280;63501;55.570;37.488;2024-02-23T11:50:13;99351.38;;;24.00;17.89
74936;BME280;63501;55.570;37.488;2024-02-23T11:52:47;99350.88;;;24.01;18.44
74936;BME280;63501;55.570;37.488;2024-02-23T11:55:19;99349.31;;;24.00;18.68
74936;BME280;63501;55.570;37.488;2024-02-23T11:58:23;99354.97;;;24.00;18.05
74936;BME280;63501;55.570;37.488;2024-02-23T12:01:14;99348.03;;;24.01;18.36
74936;BME280;63501;55.570;37.488;2024-02-23T12:03:41;99357.78;;;24.00;18.40
74936;BME280;63501;55.570;37.488;2024-02-23T12:06:09;99359.34;;;24.01;18.16
74936;BME280;63501;55.570;37.488;2024-02-23T12:08:38;99354.50;;;24.02;17.95
74936;BME280;63501;55.570;37.488;2024-02-23T12:11:08;99362.97;;;24.02;18.21
74936;BME280;63501;55.570;37.488;2024-02-23T12:13:40;99361.88;;;23.99;18.24
74936;BME280;63501;55.570;37.488;2024-02-23T12:16:22;99357.78;;;24.00;18.41
74936;BME280;63501;55.570;37.488;2024-02-23T12:18:54;99349.31;;;24.00;18.36
74936;BME280;63501;55.570;37.488;2024-02-23T12:21:29;99354.19;;;24.00;18.41
74936;BME280;63501;55.570;37.488;2024-02-23T12:24:11;99353.69;;;24.01;18.44
74936;BME280;63501;55.570;37.488;2024-02-23T12:26:44;99353.69;;;24.01;18.73
74936;BME280;63501;55.570;37.488;2024-02-23T12:29:25;99352.44;;;24.02;18.25
74936;BME280;63501;55.570;37.488;2024-02-23T12:32:02;99343.50;;;24.04;18.87
74936;BME280;63501;55.570;37.488;2024-02-23T12:34:32;99353.50;;;24.05;18.39
74936;BME280;63501;55.570;37.488;2024-02-23T12:37:07;99355.84;;;24.07;18.49
74936;BME280;63501;55.570;37.488;2024-02-23T12:39:37;99360.25;;;24.08;18.49
74936;BME280;63501;55.570;37.488;2024-02-23T12:42:06;99362.59;;;24.09;18.80
74936;BME280;63501;55.570;37.488;2024-02-23T12:44:35;99362.59;;;24.09;18.57
74936;BME280;63501;55.570;37.488;2024-02-23T12:47:15;99364.91;;;24.11;18.60
74936;BME280;63501;55.570;37.488;2024-02-23T12:49:46;99360.81;;;24.12;18.73
74936;BME280;63501;55.570;37.488;2024-02-23T12:52:14;99365.19;;;24.13;18.49
74936;BME280;63501;55.570;37.488;2024-02-23T12:54:45;99373.66;;;24.13;18.48
74936;BME280;63501;55.570;37.488;2024-02-23T12:57:12;99363.16;;;24.13;18.64
74936;BME280;63501;55.570;37.488;2024-02-23T12:59:40;99366.78;;;24.14;18.39
74936;BME280;63501;55.570;37.488;2024-02-23T13:02:17;99368.81;;;24.13;18.50
74936;BME280;63501;55.570;37.488;2024-02-23T13:04:44;99375.25;;;24.14;19.00
74936;BME280;63501;55.570;37.488;2024-02-23T13:07:24;99372.44;;;24.14;18.83
74936;BME280;63501;55.570;37.488;2024-02-23T13:09:51;99380.91;;;24.14;18.49
74936;BME280;63501;55.570;37.488;2024-02-23T13:12:21;99378.84;;;24.14;18.77
74936;BME280;63501;55.570;37.488;2024-02-23T13:14:51;99386.56;;;24.14;18.49
74936;BME280;63501;55.570;37.488;2024-02-23T13:17:21;99363.16;;;24.13;18.47
74936;BME280;63501;55.570;37.488;2024-02-23T13:19:51;99377.28;;;24.13;18.67
74936;BME280;63501;55.570;37.488;2024-02-23T13:22:21;99368.81;;;24.13;18.72
74936;BME280;63501;55.570;37.488;2024-02-23T13:27:40;99373.66;;;24.13;18.96
74936;BME280;63501;55.570;37.488;2024-02-23T13:30:13;99377.28;;;24.13;18.69